createdAt,value
2023-12-03T00:00:22.281Z,9.10
2023-12-03T00:02:50.525Z,9.45
2023-12-03T00:05:19.068Z,11.38
2023-12-03T00:07:48.067Z,16.20
2023-12-03T00:10:19.184Z,10.65
2023-12-03T00:12:47.432Z,10.00
2023-12-03T00:15:17.736Z,9.60
2023-12-03T00:17:48.310Z,9.32
2023-12-03T00:20:16.603Z,7.63
2023-12-03T00:22:44.817Z,14.43
2023-12-03T00:25:13.161Z,7.45
2023-12-03T00:27:41.424Z,16.55
2023-12-03T00:30:10.907Z,11.77
2023-12-03T00:32:43.082Z,15.18
2023-12-03T00:35:12.835Z,10.50
2023-12-03T00:37:41.294Z,11.00
2023-12-03T00:40:11.659Z,13.43
2023-12-03T00:42:39.900Z,9.00
2023-12-03T00:45:08.960Z,9.77
2023-12-03T00:47:37.259Z,6.75
2023-12-03T00:50:07.719Z,8.50
2023-12-03T00:52:35.925Z,9.65
2023-12-03T00:55:04.954Z,11.13
2023-12-03T00:57:33.721Z,9.52
2023-12-03T01:00:02.555Z,10.57
2023-12-03T01:02:30.859Z,5.75
2023-12-03T01:04:59.258Z,8.20
2023-12-03T01:07:29.078Z,8.27
2023-12-03T01:09:58.482Z,9.50
2023-12-03T01:12:26.763Z,9.48
2023-12-03T01:14:54.901Z,7.25
2023-12-03T01:17:23.056Z,9.02
2023-12-03T01:19:52.017Z,7.90
2023-12-03T01:22:20.241Z,9.70
2023-12-03T01:24:49.856Z,8.90
2023-12-03T01:27:18.218Z,9.02
2023-12-03T01:29:48.524Z,7.57
2023-12-03T01:32:16.830Z,14.85
2023-12-03T01:34:45.025Z,10.32
2023-12-03T01:37:13.308Z,7.75
2023-12-03T01:39:41.484Z,13.05
2023-12-03T01:42:11.071Z,12.95
2023-12-03T01:44:39.355Z,7.97
2023-12-03T01:47:08.097Z,8.50
2023-12-03T01:49:38.007Z,9.35
2023-12-03T01:52:06.433Z,7.60
2023-12-03T01:54:37.150Z,6.70
2023-12-03T01:57:05.752Z,11.70
2023-12-03T01:59:35.740Z,6.40
2023-12-03T02:02:04.088Z,11.00
2023-12-03T02:04:32.417Z,10.80
2023-12-03T02:07:00.705Z,8.60
2023-12-03T02:09:30.529Z,11.95
2023-12-03T02:11:58.940Z,9.13
2023-12-03T02:14:27.096Z,9.77
2023-12-03T02:16:56.584Z,11.48
2023-12-03T02:19:24.843Z,9.23
2023-12-03T02:21:53.170Z,8.70
2023-12-03T02:24:22.791Z,10.80
2023-12-03T02:26:50.955Z,10.32
2023-12-03T02:29:19.252Z,10.98
2023-12-03T02:31:47.399Z,11.77
2023-12-03T02:34:16.112Z,11.98
2023-12-03T02:36:44.472Z,10.80
2023-12-03T02:39:12.750Z,9.90
2023-12-03T02:41:42.561Z,13.65
2023-12-03T02:44:11.375Z,12.50
2023-12-03T02:46:39.583Z,13.27
2023-12-03T02:49:07.909Z,10.43
2023-12-03T02:51:36.092Z,6.70
2023-12-03T02:54:04.372Z,11.90
2023-12-03T02:56:32.736Z,11.25
2023-12-03T02:59:02.288Z,10.27
2023-12-03T03:01:30.403Z,10.57
2023-12-03T03:03:58.671Z,14.68
2023-12-03T03:06:26.934Z,11.23
2023-12-03T03:08:55.104Z,12.30
2023-12-03T03:11:23.418Z,12.95
2023-12-03T03:13:51.541Z,15.00
2023-12-03T03:16:21.272Z,6.97
2023-12-03T03:18:51.120Z,10.57
2023-12-03T03:21:19.377Z,11.15
2023-12-03T03:23:47.583Z,12.20
2023-12-03T03:26:15.860Z,11.77
2023-12-03T03:28:43.982Z,7.95
2023-12-03T03:31:12.285Z,9.98
2023-12-03T03:33:41.987Z,10.20
2023-12-03T03:36:11.636Z,8.80
2023-12-03T03:38:39.831Z,14.50
2023-12-03T03:41:08.566Z,11.75
2023-12-03T03:43:36.724Z,11.90
2023-12-03T03:46:05.418Z,10.05
2023-12-03T03:48:33.992Z,10.63
2023-12-03T03:51:03.633Z,11.45
2023-12-03T03:53:31.799Z,10.43
2023-12-03T03:55:59.970Z,11.35
2023-12-03T03:58:28.066Z,12.82
2023-12-03T04:00:56.295Z,10.30
2023-12-03T04:03:24.551Z,9.90
2023-12-03T04:05:53.697Z,12.25
2023-12-03T04:08:23.213Z,11.48
2023-12-03T04:10:51.403Z,11.25
2023-12-03T04:13:19.597Z,9.35
2023-12-03T04:16:06.248Z,10.00
2023-12-03T04:18:36.762Z,8.70
2023-12-03T04:21:07.305Z,8.88
2023-12-03T04:23:36.846Z,8.82
2023-12-03T04:26:09.896Z,10.63
2023-12-03T04:28:42.233Z,9.27
2023-12-03T04:31:23.400Z,11.95
2023-12-03T04:33:52.160Z,7.28
2023-12-03T04:36:21.092Z,7.07
2023-12-03T04:38:50.770Z,12.55
2023-12-03T04:41:19.252Z,12.38
2023-12-03T04:43:47.656Z,10.18
2023-12-03T04:46:15.922Z,11.70
2023-12-03T04:48:44.576Z,10.98
2023-12-03T04:51:14.443Z,10.38
2023-12-03T04:53:43.298Z,8.52
2023-12-03T04:56:13.267Z,8.15
2023-12-03T04:58:41.449Z,6.03
2023-12-03T05:01:09.693Z,6.53
2023-12-03T05:03:38.000Z,8.25
2023-12-03T05:06:10.131Z,8.95
2023-12-03T05:08:38.356Z,6.07
2023-12-03T05:11:07.274Z,9.10
2023-12-03T05:13:37.146Z,12.55
2023-12-03T05:16:06.652Z,10.95
2023-12-03T05:18:36.732Z,7.72
2023-12-03T05:21:05.692Z,7.07
2023-12-03T05:23:33.878Z,7.18
2023-12-03T05:26:02.051Z,7.10
2023-12-03T05:28:30.268Z,6.93
2023-12-03T05:30:59.885Z,7.03
2023-12-03T05:33:28.270Z,6.68
2023-12-03T05:35:56.424Z,7.45
2023-12-03T05:38:24.670Z,11.25
2023-12-03T05:40:52.868Z,9.15
2023-12-03T05:43:21.297Z,6.20
2023-12-03T05:45:49.490Z,8.15
2023-12-03T05:48:19.508Z,11.25
2023-12-03T05:50:48.562Z,6.85
2023-12-03T05:53:16.700Z,15.07
2023-12-03T05:55:44.959Z,7.45
2023-12-03T05:58:13.103Z,6.57
2023-12-03T06:00:41.193Z,19.67
2023-12-03T06:03:09.384Z,7.82
2023-12-03T06:05:39.391Z,9.93
2023-12-03T06:08:07.626Z,8.40
2023-12-03T06:10:39.343Z,12.13
2023-12-03T06:13:07.613Z,7.68
2023-12-03T06:15:36.014Z,9.70
2023-12-03T06:18:04.255Z,7.75
2023-12-03T06:20:32.492Z,10.10
2023-12-03T06:23:02.128Z,9.20
2023-12-03T06:25:30.279Z,9.13
2023-12-03T06:27:59.293Z,8.57
2023-12-03T06:30:27.462Z,5.72
2023-12-03T06:32:56.492Z,8.02
2023-12-03T06:35:24.868Z,11.98
2023-12-03T06:37:53.120Z,7.10
2023-12-03T06:40:22.651Z,7.60
2023-12-03T06:42:50.888Z,9.60
2023-12-03T06:45:19.027Z,8.57
2023-12-03T06:47:47.247Z,4.70
2023-12-03T06:50:15.454Z,5.78
2023-12-03T06:52:43.656Z,11.68
2023-12-03T06:55:11.932Z,6.85
2023-12-03T06:57:41.556Z,10.85
2023-12-03T07:00:10.994Z,7.38
2023-12-03T07:02:39.289Z,6.82
2023-12-03T07:05:08.694Z,6.63
2023-12-03T07:07:36.864Z,10.90
2023-12-03T07:10:05.835Z,10.90
2023-12-03T07:12:34.140Z,8.50
2023-12-03T07:15:03.855Z,8.25
2023-12-03T07:17:32.057Z,6.07
2023-12-03T07:20:00.357Z,8.85
2023-12-03T07:22:28.573Z,7.15
2023-12-03T07:24:56.814Z,8.73
2023-12-03T07:27:25.050Z,8.43
2023-12-03T07:29:56.608Z,8.52
2023-12-03T07:32:26.558Z,7.57
2023-12-03T07:34:55.286Z,6.70
2023-12-03T07:37:23.684Z,9.23
2023-12-03T07:39:51.791Z,8.63
2023-12-03T07:42:20.020Z,9.53
2023-12-03T07:44:48.715Z,6.67
2023-12-03T07:47:16.900Z,9.73
2023-12-03T07:49:46.872Z,8.27
2023-12-03T07:52:15.138Z,7.03
2023-12-03T07:54:44.240Z,13.20
2023-12-03T07:57:12.830Z,15.73
2023-12-03T07:59:41.826Z,10.93
2023-12-03T08:02:10.014Z,25.57
2023-12-03T08:04:38.243Z,9.63
2023-12-03T08:07:08.034Z,6.87
2023-12-03T08:09:36.407Z,12.97
2023-12-03T08:12:04.854Z,13.47
2023-12-03T08:14:33.052Z,7.13
2023-12-03T08:17:01.231Z,11.97
2023-12-03T08:19:29.534Z,10.17
2023-12-03T08:21:57.809Z,10.13
2023-12-03T08:24:27.392Z,9.50
2023-12-03T08:26:57.126Z,14.97
2023-12-03T08:29:25.677Z,13.33
2023-12-03T08:31:54.254Z,10.90
2023-12-03T08:34:23.141Z,10.23
2023-12-03T08:36:51.909Z,11.43
2023-12-03T08:39:21.130Z,9.47
2023-12-03T08:41:51.576Z,13.90
2023-12-03T08:44:20.373Z,11.23
2023-12-03T08:46:49.289Z,9.97
2023-12-03T08:49:19.545Z,8.73
2023-12-03T08:51:52.838Z,10.57
2023-12-03T08:54:24.490Z,8.20
2023-12-03T08:56:55.659Z,9.33
2023-12-03T08:59:26.585Z,11.20
2023-12-03T09:01:56.324Z,8.30
2023-12-03T09:04:25.599Z,10.50
2023-12-03T09:06:55.021Z,10.00
2023-12-03T09:09:24.900Z,11.10
2023-12-03T09:11:55.509Z,20.07
2023-12-03T09:14:26.566Z,9.63
2023-12-03T09:16:55.690Z,11.53
2023-12-03T09:19:26.906Z,10.43
2023-12-03T09:21:56.441Z,12.80
2023-12-03T09:24:25.792Z,13.83
2023-12-03T09:26:56.403Z,12.30
2023-12-03T09:29:25.706Z,9.80
2023-12-03T09:31:57.026Z,12.70
2023-12-03T09:34:26.697Z,10.33
2023-12-03T09:36:55.854Z,9.93
2023-12-03T09:39:25.882Z,11.93
2023-12-03T09:41:58.915Z,11.33
2023-12-03T09:44:30.555Z,12.53
2023-12-03T09:47:00.672Z,12.53
2023-12-03T09:49:32.430Z,12.63
2023-12-03T09:52:02.614Z,9.90
2023-12-03T09:54:34.104Z,13.77
2023-12-03T09:57:11.680Z,11.17
2023-12-03T09:59:47.391Z,10.90
2023-12-03T10:02:18.547Z,13.03
2023-12-03T10:04:48.273Z,12.17
2023-12-03T10:07:18.373Z,11.57
2023-12-03T10:09:47.769Z,9.07
2023-12-03T10:12:21.520Z,13.57
2023-12-03T10:14:52.158Z,10.90
2023-12-03T10:17:24.834Z,11.53
2023-12-03T10:19:54.062Z,10.80
2023-12-03T10:22:34.818Z,14.27
2023-12-03T10:25:04.755Z,11.13
2023-12-03T10:27:37.263Z,11.37
2023-12-03T10:30:08.633Z,8.50
2023-12-03T10:32:37.897Z,10.03
2023-12-03T10:35:10.040Z,9.10
2023-12-03T10:37:42.270Z,10.77
2023-12-03T10:40:13.414Z,10.23
2023-12-03T10:42:44.841Z,8.90
2023-12-03T10:45:15.468Z,11.80
2023-12-03T10:47:45.449Z,8.63
2023-12-03T10:50:16.024Z,9.57
2023-12-03T10:52:45.296Z,9.60
2023-12-03T10:55:16.397Z,8.77
2023-12-03T10:57:58.056Z,8.30
2023-12-03T11:00:32.911Z,8.27
2023-12-03T11:03:09.873Z,8.13
2023-12-03T11:05:46.628Z,8.03
2023-12-03T11:08:17.494Z,10.30
2023-12-03T11:10:47.570Z,9.53
2023-12-03T11:13:22.787Z,8.80
2023-12-03T11:15:57.697Z,11.13
2023-12-03T11:18:30.639Z,10.50
2023-12-03T11:21:12.503Z,10.47
2023-12-03T11:24:01.091Z,9.97
2023-12-03T11:26:30.799Z,6.83
2023-12-03T11:29:03.030Z,8.70
2023-12-03T11:31:32.043Z,7.10
2023-12-03T11:34:04.241Z,8.77
2023-12-03T11:36:50.883Z,9.40
2023-12-03T11:39:40.738Z,9.53
2023-12-03T11:42:14.168Z,8.93
2023-12-03T11:44:44.762Z,7.93
2023-12-03T11:47:16.132Z,9.07
2023-12-03T11:49:44.618Z,6.80
2023-12-03T11:52:12.961Z,5.63
2023-12-03T11:54:56.882Z,7.07
2023-12-03T11:57:26.680Z,7.77
2023-12-03T11:59:56.746Z,7.90
2023-12-03T12:02:25.077Z,7.70
2023-12-03T12:04:53.443Z,7.67
2023-12-03T12:07:22.896Z,6.77
2023-12-03T12:09:51.763Z,9.80
2023-12-03T12:12:20.450Z,7.47
2023-12-03T12:14:49.823Z,9.10
2023-12-03T12:17:19.467Z,7.73
2023-12-03T12:19:48.437Z,8.43
2023-12-03T12:22:17.525Z,7.30
2023-12-03T12:24:46.978Z,8.33
2023-12-03T12:27:16.183Z,7.87
2023-12-03T12:29:44.689Z,7.53
2023-12-03T12:32:12.924Z,7.53
2023-12-03T12:34:42.734Z,9.07
2023-12-03T12:37:11.274Z,8.20
2023-12-03T12:39:39.558Z,8.20
2023-12-03T12:42:08.375Z,7.17
2023-12-03T12:44:46.769Z,6.97
2023-12-03T12:47:19.693Z,8.20
2023-12-03T12:49:58.379Z,7.80
2023-12-03T12:52:26.944Z,7.13
2023-12-03T12:54:59.239Z,11.73
2023-12-03T12:57:32.495Z,10.53
2023-12-03T13:00:00.787Z,8.80
2023-12-03T13:02:29.038Z,10.50
2023-12-03T13:04:59.116Z,10.97
2023-12-03T13:07:27.366Z,10.47
2023-12-03T13:09:56.885Z,12.07
2023-12-03T13:12:25.907Z,12.73
2023-12-03T13:14:54.261Z,10.30
2023-12-03T13:17:22.810Z,11.13
2023-12-03T13:19:51.227Z,10.73
2023-12-03T13:22:21.879Z,11.87
2023-12-03T13:24:51.660Z,12.13
2023-12-03T13:27:20.188Z,11.17
2023-12-03T13:29:50.831Z,16.77
2023-12-03T13:32:19.259Z,14.20
2023-12-03T13:34:47.508Z,13.00
2023-12-03T13:37:15.685Z,17.70
2023-12-03T13:39:45.370Z,16.47
2023-12-03T13:42:16.118Z,12.07
2023-12-03T13:44:44.509Z,12.27
2023-12-03T13:47:12.743Z,12.03
2023-12-03T13:49:40.985Z,11.87
2023-12-03T13:52:09.790Z,17.20
2023-12-03T13:54:38.947Z,17.73
2023-12-03T13:57:08.592Z,15.50
2023-12-03T13:59:36.803Z,46.30
2023-12-03T14:02:06.643Z,13.67
2023-12-03T14:04:34.900Z,11.07
2023-12-03T14:07:03.290Z,10.93
2023-12-03T14:09:31.698Z,11.37
2023-12-03T14:11:59.794Z,10.03
2023-12-03T14:14:29.383Z,10.03
2023-12-03T14:16:59.091Z,11.77
2023-12-03T14:19:27.861Z,10.77
2023-12-03T14:21:56.804Z,11.83
2023-12-03T14:24:25.172Z,9.47
2023-12-03T14:26:53.421Z,9.83
2023-12-03T14:29:22.160Z,11.00
2023-12-03T14:31:51.832Z,10.67
2023-12-03T14:34:20.422Z,8.60
2023-12-03T14:36:48.891Z,8.30
2023-12-03T14:39:18.566Z,8.47
2023-12-03T14:41:46.756Z,8.70
2023-12-03T14:44:15.074Z,6.53
2023-12-03T14:46:43.462Z,8.03
2023-12-03T14:49:13.135Z,8.57
2023-12-03T14:51:41.618Z,8.60
2023-12-03T14:54:09.872Z,6.33
2023-12-03T14:56:38.043Z,6.07
2023-12-03T14:59:07.577Z,6.83
2023-12-03T15:01:36.700Z,7.07
2023-12-03T15:04:05.495Z,7.93
2023-12-03T15:06:35.476Z,5.97
2023-12-03T15:09:04.028Z,7.43
2023-12-03T15:11:32.177Z,5.13
2023-12-03T15:14:00.523Z,5.73
2023-12-03T15:16:30.152Z,6.77
2023-12-03T15:18:58.612Z,5.57
2023-12-03T15:21:27.504Z,7.65
2023-12-03T15:23:57.203Z,7.33
2023-12-03T15:26:25.453Z,6.60
2023-12-03T15:28:53.701Z,8.13
2023-12-03T15:31:22.024Z,6.33
2023-12-03T15:33:50.361Z,5.90
2023-12-03T15:36:18.600Z,6.27
2023-12-03T15:38:46.986Z,5.37
2023-12-03T15:41:17.724Z,5.33
2023-12-03T15:43:47.880Z,4.60
2023-12-03T15:46:16.398Z,4.83
2023-12-03T15:48:45.018Z,5.73
2023-12-03T15:51:13.381Z,5.67
2023-12-03T15:53:41.634Z,4.63
2023-12-03T15:56:11.123Z,5.20
2023-12-03T15:58:41.014Z,5.40
2023-12-03T16:01:12.378Z,4.60
2023-12-03T16:03:41.552Z,5.43
2023-12-03T16:06:10.928Z,4.93
2023-12-03T16:08:40.096Z,5.43
2023-12-03T16:11:09.228Z,5.00
2023-12-03T16:13:37.760Z,4.70
2023-12-03T16:16:09.256Z,4.97
2023-12-03T16:18:37.759Z,6.37
2023-12-03T16:21:06.277Z,4.07
2023-12-03T16:23:35.271Z,4.27
2023-12-03T16:26:03.469Z,4.70
2023-12-03T16:28:31.829Z,4.00
2023-12-03T16:31:00.769Z,3.57
2023-12-03T16:33:30.740Z,4.43
2023-12-03T16:35:59.284Z,3.40
2023-12-03T16:38:27.633Z,3.83
2023-12-03T16:40:56.491Z,3.73
2023-12-03T16:43:24.754Z,3.80
2023-12-03T16:45:53.177Z,4.77
2023-12-03T16:48:23.370Z,4.00
2023-12-03T16:50:53.577Z,4.40
2023-12-03T16:53:21.776Z,4.20
2023-12-03T16:55:50.466Z,3.97
2023-12-03T16:58:18.653Z,3.57
2023-12-03T17:00:46.855Z,3.67
2023-12-03T17:03:15.154Z,4.50
2023-12-03T17:05:43.887Z,3.90
2023-12-03T17:08:14.246Z,4.97
2023-12-03T17:10:42.398Z,4.20
2023-12-03T17:13:14.986Z,4.80
2023-12-03T17:15:45.922Z,4.30
2023-12-03T17:18:14.293Z,4.63
2023-12-03T17:20:42.851Z,4.77
2023-12-03T17:23:11.272Z,5.30
2023-12-03T17:25:40.885Z,4.37
2023-12-03T17:28:09.208Z,4.17
2023-12-03T17:30:37.479Z,3.57
2023-12-03T17:33:05.842Z,4.57
2023-12-03T17:35:34.205Z,4.90
2023-12-03T17:38:02.432Z,4.93
2023-12-03T17:40:30.757Z,4.00
2023-12-03T17:43:01.207Z,4.53
2023-12-03T17:45:49.600Z,5.40
2023-12-03T17:48:18.459Z,4.40
2023-12-03T17:50:47.808Z,4.27
2023-12-03T17:53:16.815Z,4.40
2023-12-03T17:55:45.855Z,5.00
2023-12-03T17:58:17.320Z,4.63
2023-12-03T18:00:46.792Z,4.97
2023-12-03T18:03:16.197Z,4.93
2023-12-03T18:05:49.317Z,5.33
2023-12-03T18:08:18.457Z,5.40
2023-12-03T18:10:56.865Z,5.90
2023-12-03T18:13:27.256Z,6.70
2023-12-03T18:15:56.120Z,4.93
2023-12-03T18:18:24.950Z,6.63
2023-12-03T18:20:56.503Z,5.73
2023-12-03T18:23:26.901Z,6.77
2023-12-03T18:26:00.318Z,6.93
2023-12-03T18:28:37.756Z,5.97
2023-12-03T18:31:21.179Z,6.50
2023-12-03T18:33:53.439Z,6.60
2023-12-03T18:36:22.174Z,7.00
2023-12-03T18:38:51.891Z,5.33
2023-12-03T18:41:24.008Z,5.60
2023-12-03T18:43:57.040Z,5.33
2023-12-03T18:46:29.226Z,6.70
2023-12-03T18:49:00.124Z,6.07
2023-12-03T18:51:30.511Z,5.40
2023-12-03T18:53:59.885Z,6.53
2023-12-03T18:56:32.089Z,5.90
2023-12-03T18:59:04.607Z,5.07
2023-12-03T19:01:33.002Z,4.97
2023-12-03T19:04:08.402Z,4.93
2023-12-03T19:06:39.257Z,5.47
2023-12-03T19:09:11.117Z,5.40
2023-12-03T19:11:39.913Z,4.80
2023-12-03T19:14:13.198Z,5.10
2023-12-03T19:16:44.261Z,4.60
2023-12-03T19:19:13.329Z,4.70
2023-12-03T19:21:43.773Z,4.87
2023-12-03T19:24:13.484Z,5.37
2023-12-03T19:26:44.630Z,5.00
2023-12-03T19:29:14.339Z,5.63
2023-12-03T19:31:48.479Z,4.60
2023-12-03T19:34:17.717Z,5.17
2023-12-03T19:36:46.013Z,5.40
2023-12-03T19:39:14.340Z,4.87
2023-12-03T19:41:44.390Z,3.83
2023-12-03T19:44:14.206Z,5.20
2023-12-03T19:46:42.682Z,4.83
2023-12-03T19:49:14.043Z,5.73
2023-12-03T19:51:45.926Z,5.47
2023-12-03T19:54:15.355Z,5.53
2023-12-03T19:56:43.839Z,4.90
2023-12-03T19:59:14.231Z,5.17
2023-12-03T20:01:42.633Z,5.53
2023-12-03T20:04:11.066Z,4.50
2023-12-03T20:06:39.400Z,4.73
2023-12-03T20:09:08.307Z,4.73
2023-12-03T20:11:36.781Z,5.50
2023-12-03T20:14:05.688Z,5.23
2023-12-03T20:16:35.382Z,5.33
2023-12-03T20:19:05.262Z,5.20
2023-12-03T20:21:33.594Z,5.33
2023-12-03T20:24:02.513Z,4.77
2023-12-03T20:26:32.632Z,5.50
2023-12-03T20:29:03.102Z,4.77
2023-12-03T20:31:33.355Z,4.30
2023-12-03T20:34:03.290Z,4.60
2023-12-03T20:36:37.550Z,4.30
2023-12-03T20:39:06.775Z,4.03
2023-12-03T20:41:35.044Z,5.00
2023-12-03T20:44:03.973Z,5.40
2023-12-03T20:46:32.214Z,4.13
2023-12-03T20:49:01.032Z,4.27
2023-12-03T20:51:31.087Z,4.10
2023-12-03T20:53:59.448Z,4.00
2023-12-03T20:56:27.880Z,3.57
2023-12-03T20:58:56.624Z,3.73
2023-12-03T21:01:26.735Z,3.43
2023-12-03T21:03:55.563Z,3.30
2023-12-03T21:06:23.913Z,3.53
2023-12-03T21:08:55.614Z,3.93
2023-12-03T21:11:23.849Z,4.03
2023-12-03T21:13:52.080Z,3.40
2023-12-03T21:16:20.295Z,3.80
2023-12-03T21:18:48.673Z,4.20
2023-12-03T21:21:18.092Z,3.80
2023-12-03T21:23:46.204Z,3.97
2023-12-03T21:26:15.800Z,4.50
2023-12-03T21:28:45.461Z,4.80
2023-12-03T21:31:13.686Z,4.47
2023-12-03T21:33:42.774Z,4.80
2023-12-03T21:36:12.169Z,4.10
2023-12-03T21:38:40.338Z,4.23
2023-12-03T21:41:09.145Z,4.77
2023-12-03T21:43:38.670Z,4.63
2023-12-03T21:46:07.457Z,4.80
2023-12-03T21:48:37.152Z,4.70
2023-12-03T21:51:05.638Z,4.60
2023-12-03T21:53:33.745Z,4.80
2023-12-03T21:56:02.027Z,3.83
2023-12-03T21:58:30.398Z,4.07
2023-12-03T22:00:59.963Z,5.37
2023-12-03T22:03:28.210Z,5.17
2023-12-03T22:05:56.454Z,4.63
2023-12-03T22:08:24.603Z,3.87
2023-12-03T22:10:54.253Z,5.40
2023-12-03T22:13:23.189Z,5.60
2023-12-03T22:15:52.969Z,4.90
2023-12-03T22:18:22.555Z,4.73
2023-12-03T22:20:50.799Z,4.77
2023-12-03T22:23:19.018Z,4.47
2023-12-03T22:25:48.437Z,5.33
2023-12-03T22:28:16.956Z,3.90
2023-12-03T22:30:45.193Z,4.50
2023-12-03T22:33:13.870Z,4.70
2023-12-03T22:35:43.872Z,4.73
2023-12-03T22:38:12.490Z,4.40
2023-12-03T22:40:40.659Z,4.07
2023-12-03T22:43:08.859Z,4.90
2023-12-03T22:45:37.695Z,4.50
2023-12-03T22:48:06.996Z,4.57
2023-12-03T22:50:36.762Z,4.77
2023-12-03T22:53:06.800Z,5.00
2023-12-03T22:55:34.996Z,5.17
2023-12-03T22:58:03.467Z,4.23
2023-12-03T23:00:33.547Z,5.93
2023-12-03T23:03:01.723Z,4.90
2023-12-03T23:05:35.366Z,5.17
2023-12-03T23:08:08.621Z,4.57
2023-12-03T23:10:36.785Z,4.47
2023-12-03T23:13:05.065Z,4.30
2023-12-03T23:15:33.342Z,4.17
2023-12-03T23:18:01.694Z,4.20
2023-12-03T23:20:30.030Z,5.17
2023-12-03T23:23:03.444Z,4.13
2023-12-03T23:25:33.086Z,3.97
2023-12-03T23:28:01.250Z,4.30
2023-12-03T23:30:29.575Z,4.70
2023-12-03T23:33:02.527Z,4.97
2023-12-03T23:35:30.938Z,4.17
2023-12-03T23:37:59.675Z,4.77
2023-12-03T23:40:27.801Z,4.63
2023-12-03T23:42:57.489Z,3.70
2023-12-03T23:45:25.660Z,4.50
2023-12-03T23:47:53.779Z,4.43
2023-12-03T23:50:22.039Z,4.10
2023-12-03T23:52:50.369Z,4.40
2023-12-03T23:55:18.521Z,4.17
2023-12-03T23:57:46.792Z,3.50
